メインページ
METAR-TAF:

METAR-TAF

空港 :

リガ国際空港

リガ, ラトビア

緯度: 56-55N, 経度: 023-58E, 海抜: 10m

現時点の気象観測

当レポートは32分前の19:20(UTC)に作成
南/南西の風 5kt
気温 15°C
湿度 77%
気圧 1015 hPa
視程10km以上
1,500メートル以下は雲なし、積乱雲なし

METAR: EVRA 181920Z 21005KT CAVOK 15/11 Q1015 NOSIG

時間: 22:52 (19:52 UTC)

予報

当レポートは2時間49分前の17:03(UTC)に作成
予報は18日の 18時(UTC)から 19日の 18時(UTC)まで有効
の風 5kt
視程10km以上
高度4500ftの雲は散在している
確率 40% :
19日の 02時(UTC)から 19日の 05時(UTC)まで一時的に
視程: 1200m
高度300ftの雲は散在している
浅い霧, 靄
19日の 10時(UTC)から 19日の 12時(UTC)まで徐々に
西/南西の風 10kt

TAF: EVRA 181703Z 1818/1918 19005KT 9999 SCT045 PROB40 TEMPO 1902/1905 1200 MIFG BR SCT003 BECMG 1910/1912 25010KT

4,000以上の空港の気象観測と天気予報(METAR報とTAF報)

利用可能な観測所は地図上に黄色い丸と赤い丸で示す。

丸の上にカーソルを重ねると観測所名を参照できる。

次にクリックすると気象観測と天気予報を参照できる。

マップの切り替え:黒色「×」印の緑ボタンをクリックして拡大、「-」印の緑ボタンをクリックして縮小、緑色の三角印をクリックして隣りの地図に切り替え


METAR-TAF: